This is the latest recevied weather packets stored in our database for station/object Ummendorf. If no packets are shown the sender has not sent any weather packets the latest 1 day(s).
| Time | Temp. | Humidity | Pressure | Rain* | Wind** | Luminosity | Snow |
|---|---|---|---|---|---|---|---|
| 1777991532 | 17.22° C | 45% | 1007.4 hPa | 0 mm | 3.13 m/s, 355° | - | - |
| 1777989730 | 17.22° C | 47% | 1007.5 hPa | 0 mm | 4.92 m/s, 303° | - | - |
| 1777987930 | 17.22° C | 49% | 1007.6 hPa | 0 mm | 2.24 m/s, 269° | - | - |
| 1777986130 | 16.67° C | 49% | 1007.7 hPa | 0 mm | 2.24 m/s, 39° | - | - |
| 1777984330 | 16.11° C | 46% | 1008.4 hPa | 0 mm | 1.79 m/s, 273° | - | - |
| 1777982530 | 16.11° C | 52% | 1008.5 hPa | 0 mm | 2.68 m/s, 276° | - | - |
| 1777980730 | 16.11° C | 49% | 1008.5 hPa | 0 mm | 4.47 m/s, 217° | - | - |
| 1777978931 | 16.11° C | 50% | 1008.3 hPa | 0 mm | 4.47 m/s, 236° | - | - |
| 1777977131 | 16.11° C | 51% | 1008.2 hPa | 0 mm | 4.47 m/s, 221° | - | - |
| 1777975332 | 16.67° C | 50% | 1008.2 hPa | 0 mm | 4.47 m/s, 211° | - | - |
| 1777973532 | 17.22° C | 48% | 1008.4 hPa | 0 mm | 3.58 m/s, 242° | - | - |
| 1777971732 | 17.22° C | 48% | 1008.6 hPa | 0 mm | 3.13 m/s, 261° | - | - |
| 1777969931 | 15.56° C | 50% | 1008.4 hPa | 0 mm | 1.79 m/s, 244° | - | - |
| 1777968131 | 14.44° C | 52% | 1008.7 hPa | 0 mm | 1.34 m/s, 277° | - | - |
| 1777966330 | 13.33° C | 54% | 1009 hPa | 0 mm | 2.68 m/s, 254° | - | - |
| 1777964532 | 12.78° C | 56% | 1009.2 hPa | 0 mm | 0 m/s | - | - |
| 1777962731 | 10.56° C | 65% | 1009.5 hPa | 0 mm | 0 m/s | - | - |
| 1777960932 | 8.33° C | 66% | 1009.8 hPa | 0 mm | 0.45 m/s, 227° | - | - |
| 1777959131 | 7.22° C | 65% | 1009.6 hPa | 0 mm | 0 m/s | - | - |
| 1777957331 | 6.67° C | 65% | 1009.7 hPa | 0 mm | 0 m/s | - | - |
| 1777955531 | 6.67° C | 64% | 1009.8 hPa | 0 mm | 0 m/s | - | - |
| 1777953731 | 6.67° C | 63% | 1009.9 hPa | 0 mm | 0.45 m/s, 131° | - | - |
| 1777951931 | 7.22° C | 63% | 1010.1 hPa | 0 mm | 0 m/s | - | - |
* Rain since midnight (hover to see other rain measurements)
** Current wind speed in m/s (hover to see current wind gust speed)